PWSweather.com
Personal Weather Stations
Station Observations

AwhituWaiuku, CA 268400

Lat: -37.058, Lon: -174.6346

Elevation: 250

Station Type: Personal

http://www.weather-display.com/windy/gb/grahamsbeach.htm

Latest ConditionsUpdated 6:00:02 PM GMT-12:48 Saturday, Jun 25, 2016
Currently Today's Max Today's Min Today's Average
Temperature 52.8°F11.6°C 61.1°F16.2°C 52.8°F11.6°C 57.1°F13.9°C
Dew Point 48.7°F9.3°C 57.6°F14.2°C 47.8°F8.8°C 52.4°F11.3°C
Winds 12.7 mph NW20.4 kmh NW 35.7 mph WNW57.5 kmh WNW - 16.3 mph 26.2 kmh
Wind Gusts 15.0 mph24.1 kmh 46.0 mph74.0 kmh - -
Humidity 86% 96% 71% 84%
Pressure 29.53 in1000.0 mb 29.55 in1000.7 mb 29.45 in997.3 mb -
Precipitation - 0.24 in6.1 mm - -
Hour Temp Dew Point Humidity Winds Wind Gusts Pressure Precip Precip Rate Daily Precip Total
06:00 PM 52.8°F11.6°C 48.7°F9.3°C 86% 12.7 mph NW20.4 kmh NW 15.0 mph24.1 kmh 29.53 in1000.0 mb - 0.00 in0.0 mm 0.24 in6.1 mm
05:30 PM 52.8°F11.6°C 47.8°F8.8°C 83% 24.2 mph WNW38.9 kmh WNW 29.9 mph48.1 kmh 29.52 in999.7 mb - 0.04 in1.0 mm 0.24 in6.1 mm
05:00 PM 54.7°F12.6°C 49.0°F9.4°C 81% 17.3 mph NW27.8 kmh NW 21.9 mph35.2 kmh 29.51 in999.3 mb - 0.00 in0.0 mm 0.20 in5.1 mm
04:30 PM 55.2°F12.9°C 49.5°F9.7°C 81% 20.7 mph WNW33.3 kmh WNW 27.6 mph44.4 kmh 29.50 in999.0 mb - 0.00 in0.0 mm 0.20 in5.1 mm
04:00 PM 55.4°F13.0°C 49.0°F9.4°C 79% 24.2 mph WNW38.9 kmh WNW 29.9 mph48.1 kmh 29.50 in999.0 mb - 0.00 in0.0 mm 0.20 in5.1 mm
03:30 PM 58.2°F14.6°C 50.4°F10.2°C 75% 28.8 mph WNW46.3 kmh WNW 46.0 mph74.0 kmh 29.50 in999.0 mb - 0.02 in0.5 mm 0.20 in5.1 mm
03:00 PM 58.9°F14.9°C 49.5°F9.7°C 71% 26.5 mph WNW42.6 kmh WNW 28.8 mph46.3 kmh 29.51 in999.3 mb - 0.00 in0.0 mm 0.18 in4.6 mm
02:30 PM 61.1°F16.2°C 52.4°F11.3°C 73% 32.2 mph NW51.8 kmh NW 40.3 mph64.9 kmh 29.50 in999.0 mb - 0.00 in0.0 mm 0.18 in4.6 mm
02:00 PM 60.0°F15.6°C 51.3°F10.7°C 73% 18.4 mph WNW29.6 kmh WNW 23.0 mph37.0 kmh 29.49 in998.6 mb - 0.00 in0.0 mm 0.18 in4.6 mm
01:30 PM 56.0°F13.3°C 49.6°F9.8°C 79% 21.9 mph NW35.2 kmh NW 23.0 mph37.0 kmh 29.50 in999.0 mb - 0.00 in0.0 mm 0.18 in4.6 mm
01:00 PM 58.6°F14.8°C 52.1°F11.2°C 79% 18.4 mph WNW29.6 kmh WNW 25.3 mph40.7 kmh 29.51 in999.3 mb - 0.00 in0.0 mm 0.18 in4.6 mm
12:30 PM 58.7°F14.8°C 52.5°F11.4°C 80% 12.7 mph WNW20.4 kmh WNW 17.3 mph27.8 kmh 29.53 in1000.0 mb - 0.00 in0.0 mm 0.18 in4.6 mm
12:00 PM 59.8°F15.4°C 53.3°F11.8°C 79% 21.9 mph WNW35.2 kmh WNW 36.8 mph59.2 kmh 29.52 in999.7 mb - 0.01 in0.3 mm 0.18 in4.6 mm
11:30 AM 58.6°F14.8°C 53.8°F12.1°C 84% 6.9 mph NW11.1 kmh NW 8.1 mph13.0 kmh 29.55 in1000.7 mb - 0.00 in0.0 mm 0.17 in4.3 mm
11:00 AM 57.1°F13.9°C 54.2°F12.3°C 90% 8.1 mph N13.0 kmh N 10.4 mph16.7 kmh 29.54 in1000.3 mb - 0.00 in0.0 mm 0.17 in4.3 mm
10:30 AM 56.7°F13.7°C 53.2°F11.8°C 88% 11.5 mph NNE18.5 kmh NNE 11.5 mph18.5 kmh 29.54 in1000.3 mb - 0.00 in0.0 mm 0.17 in4.3 mm
10:00 AM 55.2°F12.9°C 52.3°F11.3°C 90% 10.4 mph N16.7 kmh N 11.5 mph18.5 kmh 29.53 in1000.0 mb - 0.00 in0.0 mm 0.17 in4.3 mm
09:30 AM 55.2°F12.9°C 52.0°F11.1°C 89% 9.2 mph N14.8 kmh N 11.5 mph18.5 kmh 29.53 in1000.0 mb - 0.00 in0.0 mm 0.17 in4.3 mm
09:00 AM 54.9°F12.7°C 51.4°F10.8°C 88% 10.4 mph N16.7 kmh N 13.8 mph22.2 kmh 29.52 in999.7 mb - 0.00 in0.0 mm 0.17 in4.3 mm
08:30 AM 54.6°F12.6°C 50.5°F10.3°C 86% 15.0 mph N24.1 kmh N 18.4 mph29.6 kmh 29.50 in999.0 mb - 0.00 in0.0 mm 0.17 in4.3 mm
08:00 AM 54.8°F12.7°C 51.0°F10.6°C 87% 27.6 mph NW44.4 kmh NW 34.5 mph55.5 kmh 29.50 in999.0 mb - 0.02 in0.5 mm 0.17 in4.3 mm
07:30 AM 52.8°F11.6°C 50.2°F10.1°C 91% 35.7 mph WNW57.5 kmh WNW 46.0 mph74.0 kmh 29.50 in999.0 mb - 0.13 in3.3 mm 0.16 in4.1 mm
07:00 AM 58.2°F14.6°C 54.0°F12.2°C 86% 13.8 mph WNW22.2 kmh WNW 18.4 mph29.6 kmh 29.48 in998.3 mb - 0.00 in0.0 mm 0.03 in0.8 mm
06:30 AM 58.1°F14.5°C 54.6°F12.6°C 88% 12.7 mph N20.4 kmh N 20.7 mph33.3 kmh 29.47 in998.0 mb - 0.00 in0.0 mm 0.03 in0.8 mm
06:00 AM 58.0°F14.4°C 53.8°F12.1°C 86% 18.4 mph NW29.6 kmh NW 19.6 mph31.5 kmh 29.46 in997.6 mb - 0.02 in0.5 mm 0.03 in0.8 mm
05:30 AM 58.3°F14.6°C 54.2°F12.3°C 86% 11.5 mph NW18.5 kmh NW 13.8 mph22.2 kmh 29.46 in997.6 mb - 0.00 in0.0 mm 0.01 in0.3 mm
05:00 AM 57.8°F14.3°C 54.0°F12.2°C 87% 19.6 mph NW31.5 kmh NW 21.9 mph35.2 kmh 29.45 in997.3 mb - 0.01 in0.3 mm 0.01 in0.3 mm
04:30 AM 59.1°F15.1°C 53.9°F12.2°C 83% 16.1 mph NW25.9 kmh NW 19.6 mph31.5 kmh 29.45 in997.3 mb - 0.00 in0.0 mm 0.01 in0.3 mm
04:00 AM 58.4°F14.7°C 53.9°F12.2°C 85% 15.0 mph NW24.1 kmh NW 21.9 mph35.2 kmh 29.45 in997.3 mb - 0.00 in0.0 mm 0.01 in0.3 mm
03:30 AM 58.5°F14.7°C 54.0°F12.2°C 85% 12.7 mph WNW20.4 kmh WNW 17.3 mph27.8 kmh 29.47 in998.0 mb - 0.00 in0.0 mm 0.01 in0.3 mm
03:00 AM 58.2°F14.6°C 53.7°F12.1°C 85% 12.7 mph NW20.4 kmh NW 13.8 mph22.2 kmh 29.47 in998.0 mb - 0.00 in0.0 mm 0.01 in0.3 mm
02:30 AM 57.4°F14.1°C 53.6°F12.0°C 87% 5.8 mph NW9.3 kmh NW 10.4 mph16.7 kmh 29.47 in998.0 mb - 0.00 in0.0 mm 0.01 in0.3 mm
02:00 AM 57.3°F14.1°C 52.8°F11.6°C 85% 5.8 mph N9.3 kmh N 9.2 mph14.8 kmh 29.48 in998.3 mb - 0.00 in0.0 mm 0.01 in0.3 mm
01:30 AM 57.6°F14.2°C 53.7°F12.1°C 87% 12.7 mph WNW20.4 kmh WNW 13.8 mph22.2 kmh 29.47 in998.0 mb - 0.00 in0.0 mm 0.01 in0.3 mm
01:00 AM 58.0°F14.4°C 55.1°F12.8°C 90% 18.4 mph NW29.6 kmh NW 20.7 mph33.3 kmh 29.47 in998.0 mb - 0.00 in0.0 mm 0.01 in0.3 mm
12:30 AM 58.3°F14.6°C 56.9°F13.8°C 95% 5.8 mph NW9.3 kmh NW 8.1 mph13.0 kmh 29.47 in998.0 mb - 0.00 in0.0 mm 0.01 in0.3 mm
12:00 AM 58.7°F14.8°C 57.6°F14.2°C 96% 6.9 mph N11.1 kmh N 11.5 mph18.5 kmh 29.48 in998.3 mb - 0.01 in0.3 mm 0.01 in0.3 mm